This is the latest recevied weather packets stored in our database for station/object KB1QVF. If no packets are shown the sender has not sent any weather packets the latest 10 day(s).
| Time | Temp. | Humidity | Pressure | Rain* | Wind** | Luminosity | Snow |
|---|---|---|---|---|---|---|---|
| 1777310078 | 19.44° C | 37% | 1025.9 hPa | 0 mm | - | 788 W/m² | - |
| 1777309777 | 20° C | 34% | 1025.9 hPa | 0 mm | - | 789 W/m² | - |
| 1777309474 | 18.33° C | 36% | 1026.1 hPa | 0 mm | - | 790 W/m² | - |
| 1777309171 | 19.44° C | 33% | 1026 hPa | 0 mm | - | 790 W/m² | - |
| 1777308869 | 19.44° C | 33% | 1026 hPa | 0 mm | - | 790 W/m² | - |
| 1777308564 | 18.89° C | 34% | 1026.1 hPa | 0 mm | - | 790 W/m² | - |
| 1777308260 | 18.89° C | 33% | 1026.3 hPa | 0 mm | - | 789 W/m² | - |
| 1777307956 | 18.33° C | 34% | 1026.2 hPa | 0 mm | - | 788 W/m² | - |
| 1777307654 | 18.33° C | 34% | 1026 hPa | 0 mm | - | 787 W/m² | - |
| 1777307350 | 18.89° C | 34% | 1026 hPa | 0 mm | - | 784 W/m² | - |
| 1777307048 | 17.78° C | 37% | 1026 hPa | 0 mm | - | 783 W/m² | - |
| 1777306745 | 17.78° C | 36% | 1026.2 hPa | 0 mm | - | 780 W/m² | - |
| 1777306442 | 18.33° C | 35% | 1026.1 hPa | 0 mm | - | 776 W/m² | - |
| 1777306137 | 18.33° C | 36% | 1026.2 hPa | 0 mm | - | 772 W/m² | - |
| 1777305833 | 18.33° C | 38% | 1026.2 hPa | 0 mm | - | 767 W/m² | - |
| 1777305529 | 17.78° C | 35% | 1026.2 hPa | 0 mm | - | 764 W/m² | - |
| 1777305225 | 17.22° C | 38% | 1026.3 hPa | 0 mm | - | 758 W/m² | - |
| 1777304919 | 16.67° C | 37% | 1026.4 hPa | 0 mm | - | 754 W/m² | - |
| 1777304616 | 16.67° C | 36% | 1026.3 hPa | 0 mm | - | 747 W/m² | - |
| 1777304313 | 16.67° C | 39% | 1026.5 hPa | 0 mm | - | 740 W/m² | - |
| 1777304010 | 16.67° C | 37% | 1026.3 hPa | 0 mm | - | 733 W/m² | - |
| 1777303707 | 16.67° C | 41% | 1026.4 hPa | 0 mm | - | 723 W/m² | - |
| 1777303404 | 17.22° C | 38% | 1026.4 hPa | 0 mm | - | 716 W/m² | - |
| 1777303101 | 16.67° C | 42% | 1026.4 hPa | 0 mm | - | 713 W/m² | - |
| 1777302800 | 16.67° C | 43% | 1026.3 hPa | 0 mm | - | 703 W/m² | - |
* Rain latest hour (hover to see other rain measurements)
** Current wind speed in m/s (hover to see current wind gust speed)